sensor_id;sensor_type;location;lat;lon;timestamp;P1;durP1;ratioP1;P2;durP2;ratioP2
25091;SDS011;13082;52.374;4.946;2022-08-19T00:00:18;6.03;;;5.00;;
25091;SDS011;13082;52.374;4.946;2022-08-19T00:02:44;7.00;;;5.15;;
25091;SDS011;13082;52.374;4.946;2022-08-19T00:05:11;5.38;;;4.80;;
25091;SDS011;13082;52.374;4.946;2022-08-19T00:07:38;6.18;;;4.65;;
25091;SDS011;13082;52.374;4.946;2022-08-19T00:10:06;6.78;;;5.22;;
25091;SDS011;13082;52.374;4.946;2022-08-19T00:12:32;5.45;;;4.80;;
25091;SDS011;13082;52.374;4.946;2022-08-19T00:14:59;7.13;;;5.28;;
25091;SDS011;13082;52.374;4.946;2022-08-19T00:17:25;5.32;;;4.60;;
25091;SDS011;13082;52.374;4.946;2022-08-19T00:19:50;5.32;;;4.82;;
25091;SDS011;13082;52.374;4.946;2022-08-19T00:22:16;6.90;;;5.78;;
25091;SDS011;13082;52.374;4.946;2022-08-19T00:24:43;6.47;;;5.40;;
25091;SDS011;13082;52.374;4.946;2022-08-19T00:27:10;9.25;;;5.35;;
25091;SDS011;13082;52.374;4.946;2022-08-19T00:29:36;6.63;;;5.03;;
25091;SDS011;13082;52.374;4.946;2022-08-19T00:32:02;5.78;;;4.80;;
25091;SDS011;13082;52.374;4.946;2022-08-19T00:34:28;11.10;;;5.47;;
25091;SDS011;13082;52.374;4.946;2022-08-19T00:36:54;6.78;;;4.82;;
25091;SDS011;13082;52.374;4.946;2022-08-19T00:39:21;5.43;;;4.63;;
25091;SDS011;13082;52.374;4.946;2022-08-19T00:41:47;8.50;;;5.10;;
25091;SDS011;13082;52.374;4.946;2022-08-19T00:44:19;6.05;;;5.25;;
25091;SDS011;13082;52.374;4.946;2022-08-19T00:46:48;5.25;;;4.55;;
25091;SDS011;13082;52.374;4.946;2022-08-19T00:52:07;11.35;;;5.68;;
25091;SDS011;13082;52.374;4.946;2022-08-19T00:54:35;5.78;;;4.75;;
25091;SDS011;13082;52.374;4.946;2022-08-19T00:57:03;7.80;;;4.90;;
25091;SDS011;13082;52.374;4.946;2022-08-19T00:59:34;5.78;;;5.18;;
25091;SDS011;13082;52.374;4.946;2022-08-19T01:02:01;6.82;;;5.63;;
25091;SDS011;13082;52.374;4.946;2022-08-19T01:04:29;8.57;;;5.30;;
25091;SDS011;13082;52.374;4.946;2022-08-19T01:06:55;8.23;;;4.63;;
25091;SDS011;13082;52.374;4.946;2022-08-19T01:09:22;8.07;;;5.07;;
25091;SDS011;13082;52.374;4.946;2022-08-19T01:11:47;8.18;;;5.78;;
25091;SDS011;13082;52.374;4.946;2022-08-19T01:14:13;7.78;;;5.80;;
25091;SDS011;13082;52.374;4.946;2022-08-19T01:16:40;10.25;;;6.63;;
25091;SDS011;13082;52.374;4.946;2022-08-19T01:19:26;10.50;;;7.57;;
25091;SDS011;13082;52.374;4.946;2022-08-19T01:22:05;9.02;;;7.75;;
25091;SDS011;13082;52.374;4.946;2022-08-19T01:24:35;10.50;;;8.25;;
25091;SDS011;13082;52.374;4.946;2022-08-19T01:27:03;12.52;;;8.30;;
25091;SDS011;13082;52.374;4.946;2022-08-19T01:29:29;9.85;;;8.18;;
25091;SDS011;13082;52.374;4.946;2022-08-19T01:31:55;11.77;;;9.07;;
25091;SDS011;13082;52.374;4.946;2022-08-19T01:34:21;12.02;;;9.27;;
25091;SDS011;13082;52.374;4.946;2022-08-19T01:36:47;12.88;;;8.80;;
25091;SDS011;13082;52.374;4.946;2022-08-19T01:39:23;14.38;;;9.98;;
25091;SDS011;13082;52.374;4.946;2022-08-19T01:41:50;12.65;;;9.70;;
25091;SDS011;13082;52.374;4.946;2022-08-19T01:44:20;14.07;;;9.73;;
25091;SDS011;13082;52.374;4.946;2022-08-19T01:46:48;11.55;;;9.38;;
25091;SDS011;13082;52.374;4.946;2022-08-19T01:49:16;12.23;;;8.95;;
25091;SDS011;13082;52.374;4.946;2022-08-19T01:51:44;13.57;;;10.23;;
25091;SDS011;13082;52.374;4.946;2022-08-19T01:54:11;12.20;;;9.20;;
25091;SDS011;13082;52.374;4.946;2022-08-19T01:56:38;14.20;;;10.32;;
25091;SDS011;13082;52.374;4.946;2022-08-19T01:59:05;11.75;;;8.70;;
25091;SDS011;13082;52.374;4.946;2022-08-19T02:01:37;15.35;;;9.27;;
25091;SDS011;13082;52.374;4.946;2022-08-19T02:04:02;12.13;;;8.95;;
25091;SDS011;13082;52.374;4.946;2022-08-19T02:06:28;12.40;;;9.55;;
25091;SDS011;13082;52.374;4.946;2022-08-19T02:08:54;11.35;;;9.43;;
25091;SDS011;13082;52.374;4.946;2022-08-19T02:11:21;12.02;;;9.30;;
25091;SDS011;13082;52.374;4.946;2022-08-19T02:13:49;11.40;;;9.15;;
25091;SDS011;13082;52.374;4.946;2022-08-19T02:16:16;12.52;;;8.93;;
25091;SDS011;13082;52.374;4.946;2022-08-19T02:18:43;11.70;;;8.45;;
25091;SDS011;13082;52.374;4.946;2022-08-19T02:21:08;11.07;;;9.00;;
25091;SDS011;13082;52.374;4.946;2022-08-19T02:23:35;11.85;;;8.70;;
25091;SDS011;13082;52.374;4.946;2022-08-19T02:26:01;9.38;;;7.68;;
25091;SDS011;13082;52.374;4.946;2022-08-19T02:28:27;10.50;;;8.25;;
25091;SDS011;13082;52.374;4.946;2022-08-19T02:30:52;12.57;;;8.45;;
25091;SDS011;13082;52.374;4.946;2022-08-19T02:33:18;11.50;;;8.63;;
25091;SDS011;13082;52.374;4.946;2022-08-19T02:35:44;10.57;;;7.95;;
25091;SDS011;13082;52.374;4.946;2022-08-19T02:38:10;11.15;;;8.27;;
25091;SDS011;13082;52.374;4.946;2022-08-19T02:41:01;10.25;;;8.80;;
25091;SDS011;13082;52.374;4.946;2022-08-19T02:43:32;12.05;;;9.00;;
25091;SDS011;13082;52.374;4.946;2022-08-19T02:46:01;11.25;;;8.57;;
25091;SDS011;13082;52.374;4.946;2022-08-19T02:48:37;11.75;;;9.10;;
25091;SDS011;13082;52.374;4.946;2022-08-19T02:51:03;11.35;;;9.30;;
25091;SDS011;13082;52.374;4.946;2022-08-19T02:53:30;15.75;;;9.90;;
25091;SDS011;13082;52.374;4.946;2022-08-19T02:55:56;14.93;;;10.02;;
25091;SDS011;13082;52.374;4.946;2022-08-19T02:58:22;14.10;;;10.27;;
25091;SDS011;13082;52.374;4.946;2022-08-19T03:00:49;11.77;;;9.35;;
25091;SDS011;13082;52.374;4.946;2022-08-19T03:03:17;11.00;;;9.20;;
25091;SDS011;13082;52.374;4.946;2022-08-19T03:05:44;15.40;;;9.10;;
25091;SDS011;13082;52.374;4.946;2022-08-19T03:08:10;12.55;;;9.15;;
25091;SDS011;13082;52.374;4.946;2022-08-19T03:10:41;12.75;;;9.80;;
25091;SDS011;13082;52.374;4.946;2022-08-19T03:13:09;14.50;;;10.23;;
25091;SDS011;13082;52.374;4.946;2022-08-19T03:15:43;13.80;;;10.43;;
25091;SDS011;13082;52.374;4.946;2022-08-19T03:18:11;18.02;;;10.73;;
25091;SDS011;13082;52.374;4.946;2022-08-19T03:20:44;14.30;;;10.30;;
25091;SDS011;13082;52.374;4.946;2022-08-19T03:23:10;12.73;;;9.85;;
25091;SDS011;13082;52.374;4.946;2022-08-19T03:25:40;14.10;;;9.82;;
25091;SDS011;13082;52.374;4.946;2022-08-19T03:28:12;16.60;;;10.38;;
25091;SDS011;13082;52.374;4.946;2022-08-19T03:30:39;14.05;;;9.20;;
25091;SDS011;13082;52.374;4.946;2022-08-19T03:33:06;13.18;;;9.73;;
25091;SDS011;13082;52.374;4.946;2022-08-19T03:35:33;12.18;;;9.68;;
25091;SDS011;13082;52.374;4.946;2022-08-19T03:38:01;14.48;;;9.18;;
25091;SDS011;13082;52.374;4.946;2022-08-19T03:40:28;11.95;;;9.13;;
25091;SDS011;13082;52.374;4.946;2022-08-19T03:42:55;14.00;;;10.15;;
25091;SDS011;13082;52.374;4.946;2022-08-19T03:45:21;18.40;;;10.98;;
25091;SDS011;13082;52.374;4.946;2022-08-19T03:47:47;13.48;;;10.10;;
25091;SDS011;13082;52.374;4.946;2022-08-19T03:50:13;13.93;;;10.75;;
25091;SDS011;13082;52.374;4.946;2022-08-19T03:52:39;16.90;;;10.35;;
25091;SDS011;13082;52.374;4.946;2022-08-19T03:55:04;16.00;;;10.45;;
25091;SDS011;13082;52.374;4.946;2022-08-19T03:57:30;15.65;;;11.13;;
25091;SDS011;13082;52.374;4.946;2022-08-19T03:59:58;16.77;;;11.23;;
25091;SDS011;13082;52.374;4.946;2022-08-19T04:02:24;19.00;;;11.90;;
25091;SDS011;13082;52.374;4.946;2022-08-19T04:04:49;15.63;;;11.13;;
25091;SDS011;13082;52.374;4.946;2022-08-19T04:07:19;16.13;;;11.25;;
25091;SDS011;13082;52.374;4.946;2022-08-19T04:09:46;16.38;;;11.68;;
25091;SDS011;13082;52.374;4.946;2022-08-19T04:12:12;15.82;;;11.65;;
25091;SDS011;13082;52.374;4.946;2022-08-19T04:14:38;18.75;;;13.40;;
25091;SDS011;13082;52.374;4.946;2022-08-19T04:17:04;17.58;;;12.85;;
25091;SDS011;13082;52.374;4.946;2022-08-19T04:19:30;22.67;;;13.25;;
25091;SDS011;13082;52.374;4.946;2022-08-19T04:21:57;19.80;;;13.18;;
25091;SDS011;13082;52.374;4.946;2022-08-19T04:24:23;22.33;;;13.20;;
25091;SDS011;13082;52.374;4.946;2022-08-19T04:26:49;22.83;;;14.65;;
25091;SDS011;13082;52.374;4.946;2022-08-19T04:29:17;19.73;;;13.70;;
25091;SDS011;13082;52.374;4.946;2022-08-19T04:31:47;22.05;;;14.05;;
25091;SDS011;13082;52.374;4.946;2022-08-19T04:34:15;21.55;;;13.05;;
25091;SDS011;13082;52.374;4.946;2022-08-19T04:36:43;19.05;;;13.18;;
25091;SDS011;13082;52.374;4.946;2022-08-19T04:39:12;22.63;;;13.85;;
25091;SDS011;13082;52.374;4.946;2022-08-19T04:41:40;26.10;;;14.15;;
25091;SDS011;13082;52.374;4.946;2022-08-19T04:44:24;29.40;;;14.15;;
25091;SDS011;13082;52.374;4.946;2022-08-19T04:46:50;27.30;;;17.25;;
25091;SDS011;13082;52.374;4.946;2022-08-19T04:49:18;24.60;;;14.70;;
25091;SDS011;13082;52.374;4.946;2022-08-19T04:51:47;22.42;;;14.05;;
25091;SDS011;13082;52.374;4.946;2022-08-19T04:54:14;22.23;;;15.25;;
25091;SDS011;13082;52.374;4.946;2022-08-19T04:56:41;25.05;;;15.95;;
25091;SDS011;13082;52.374;4.946;2022-08-19T04:59:08;25.15;;;15.65;;
25091;SDS011;13082;52.374;4.946;2022-08-19T05:01:35;25.20;;;14.93;;
25091;SDS011;13082;52.374;4.946;2022-08-19T05:04:02;27.25;;;16.27;;
25091;SDS011;13082;52.374;4.946;2022-08-19T05:06:30;30.10;;;16.10;;
25091;SDS011;13082;52.374;4.946;2022-08-19T05:08:59;22.33;;;14.50;;
25091;SDS011;13082;52.374;4.946;2022-08-19T05:11:27;26.52;;;14.90;;
25091;SDS011;13082;52.374;4.946;2022-08-19T05:13:55;25.20;;;15.93;;
25091;SDS011;13082;52.374;4.946;2022-08-19T05:16:22;28.92;;;15.55;;
25091;SDS011;13082;52.374;4.946;2022-08-19T05:18:49;21.75;;;14.77;;
25091;SDS011;13082;52.374;4.946;2022-08-19T05:21:34;25.75;;;15.30;;
25091;SDS011;13082;52.374;4.946;2022-08-19T05:24:20;26.95;;;15.38;;
25091;SDS011;13082;52.374;4.946;2022-08-19T05:26:48;28.85;;;17.30;;
25091;SDS011;13082;52.374;4.946;2022-08-19T05:29:16;27.65;;;16.23;;
25091;SDS011;13082;52.374;4.946;2022-08-19T05:31:44;27.13;;;16.25;;
25091;SDS011;13082;52.374;4.946;2022-08-19T05:34:11;28.85;;;17.02;;
25091;SDS011;13082;52.374;4.946;2022-08-19T05:36:38;28.42;;;17.20;;
25091;SDS011;13082;52.374;4.946;2022-08-19T05:39:06;28.38;;;15.50;;
25091;SDS011;13082;52.374;4.946;2022-08-19T05:41:33;31.80;;;17.67;;
25091;SDS011;13082;52.374;4.946;2022-08-19T05:44:03;33.65;;;18.08;;
25091;SDS011;13082;52.374;4.946;2022-08-19T05:46:34;30.42;;;17.90;;
25091;SDS011;13082;52.374;4.946;2022-08-19T05:49:02;27.27;;;16.73;;
25091;SDS011;13082;52.374;4.946;2022-08-19T05:51:29;32.65;;;18.58;;
25091;SDS011;13082;52.374;4.946;2022-08-19T05:53:54;32.47;;;18.42;;
25091;SDS011;13082;52.374;4.946;2022-08-19T05:56:20;32.13;;;16.88;;
25091;SDS011;13082;52.374;4.946;2022-08-19T05:58:46;33.40;;;18.05;;
25091;SDS011;13082;52.374;4.946;2022-08-19T06:01:12;28.52;;;17.42;;
25091;SDS011;13082;52.374;4.946;2022-08-19T06:03:40;25.13;;;17.08;;
25091;SDS011;13082;52.374;4.946;2022-08-19T06:06:06;28.77;;;18.30;;
25091;SDS011;13082;52.374;4.946;2022-08-19T06:08:33;32.80;;;17.85;;
25091;SDS011;13082;52.374;4.946;2022-08-19T06:11:11;32.00;;;17.75;;
25091;SDS011;13082;52.374;4.946;2022-08-19T06:13:39;35.40;;;18.48;;
25091;SDS011;13082;52.374;4.946;2022-08-19T06:16:04;36.92;;;19.08;;
25091;SDS011;13082;52.374;4.946;2022-08-19T06:18:30;30.92;;;18.17;;
25091;SDS011;13082;52.374;4.946;2022-08-19T06:20:56;38.30;;;20.65;;
25091;SDS011;13082;52.374;4.946;2022-08-19T06:23:21;38.40;;;20.10;;
25091;SDS011;13082;52.374;4.946;2022-08-19T06:25:47;38.33;;;20.52;;
25091;SDS011;13082;52.374;4.946;2022-08-19T06:28:12;40.17;;;20.70;;
25091;SDS011;13082;52.374;4.946;2022-08-19T06:30:38;37.33;;;21.27;;
25091;SDS011;13082;52.374;4.946;2022-08-19T06:33:03;39.75;;;21.40;;
25091;SDS011;13082;52.374;4.946;2022-08-19T06:35:30;42.08;;;22.10;;
25091;SDS011;13082;52.374;4.946;2022-08-19T06:37:56;40.72;;;21.42;;
25091;SDS011;13082;52.374;4.946;2022-08-19T06:40:21;38.00;;;21.58;;
25091;SDS011;13082;52.374;4.946;2022-08-19T06:42:47;41.92;;;20.88;;
25091;SDS011;13082;52.374;4.946;2022-08-19T06:45:13;41.92;;;21.45;;
25091;SDS011;13082;52.374;4.946;2022-08-19T06:47:39;47.15;;;22.50;;
25091;SDS011;13082;52.374;4.946;2022-08-19T06:50:05;40.28;;;21.67;;
25091;SDS011;13082;52.374;4.946;2022-08-19T06:52:34;39.53;;;20.73;;
25091;SDS011;13082;52.374;4.946;2022-08-19T06:55:01;38.70;;;20.70;;
25091;SDS011;13082;52.374;4.946;2022-08-19T06:57:27;41.30;;;20.50;;
25091;SDS011;13082;52.374;4.946;2022-08-19T06:59:57;35.22;;;20.20;;
25091;SDS011;13082;52.374;4.946;2022-08-19T07:02:25;40.58;;;19.70;;
25091;SDS011;13082;52.374;4.946;2022-08-19T07:04:51;38.42;;;21.45;;
25091;SDS011;13082;52.374;4.946;2022-08-19T07:07:17;39.20;;;21.75;;
25091;SDS011;13082;52.374;4.946;2022-08-19T07:09:45;41.28;;;21.35;;
25091;SDS011;13082;52.374;4.946;2022-08-19T07:12:11;40.10;;;19.27;;
25091;SDS011;13082;52.374;4.946;2022-08-19T07:14:40;41.10;;;20.75;;
25091;SDS011;13082;52.374;4.946;2022-08-19T07:17:08;43.42;;;22.33;;
25091;SDS011;13082;52.374;4.946;2022-08-19T07:19:36;46.85;;;21.65;;
25091;SDS011;13082;52.374;4.946;2022-08-19T07:22:03;41.92;;;20.27;;
25091;SDS011;13082;52.374;4.946;2022-08-19T07:24:30;41.72;;;22.00;;
25091;SDS011;13082;52.374;4.946;2022-08-19T07:26:57;39.85;;;19.52;;
25091;SDS011;13082;52.374;4.946;2022-08-19T07:29:25;42.40;;;18.98;;
25091;SDS011;13082;52.374;4.946;2022-08-19T07:31:53;40.42;;;20.92;;
25091;SDS011;13082;52.374;4.946;2022-08-19T07:34:23;37.28;;;20.25;;
25091;SDS011;13082;52.374;4.946;2022-08-19T07:36:50;40.88;;;19.40;;
25091;SDS011;13082;52.374;4.946;2022-08-19T07:39:18;35.88;;;19.33;;
25091;SDS011;13082;52.374;4.946;2022-08-19T07:41:46;42.53;;;20.80;;
25091;SDS011;13082;52.374;4.946;2022-08-19T07:44:12;37.08;;;19.08;;
25091;SDS011;13082;52.374;4.946;2022-08-19T07:46:40;40.45;;;19.33;;
25091;SDS011;13082;52.374;4.946;2022-08-19T07:49:09;34.17;;;17.88;;
25091;SDS011;13082;52.374;4.946;2022-08-19T07:51:48;35.88;;;17.13;;
25091;SDS011;13082;52.374;4.946;2022-08-19T07:54:19;32.30;;;17.33;;
25091;SDS011;13082;52.374;4.946;2022-08-19T07:56:46;40.78;;;17.65;;
25091;SDS011;13082;52.374;4.946;2022-08-19T07:59:12;32.80;;;16.67;;
25091;SDS011;13082;52.374;4.946;2022-08-19T08:01:38;27.90;;;16.50;;
25091;SDS011;13082;52.374;4.946;2022-08-19T08:04:05;32.45;;;17.48;;
25091;SDS011;13082;52.374;4.946;2022-08-19T08:06:50;30.90;;;16.63;;
25091;SDS011;13082;52.374;4.946;2022-08-19T08:09:36;28.05;;;16.02;;
25091;SDS011;13082;52.374;4.946;2022-08-19T08:12:26;26.33;;;15.13;;
25091;SDS011;13082;52.374;4.946;2022-08-19T08:14:55;21.98;;;13.60;;
25091;SDS011;13082;52.374;4.946;2022-08-19T08:17:29;27.42;;;16.23;;
25091;SDS011;13082;52.374;4.946;2022-08-19T08:19:55;33.28;;;15.43;;
25091;SDS011;13082;52.374;4.946;2022-08-19T08:22:22;25.92;;;14.65;;
25091;SDS011;13082;52.374;4.946;2022-08-19T08:25:10;27.08;;;15.25;;
25091;SDS011;13082;52.374;4.946;2022-08-19T08:27:41;27.83;;;16.23;;
25091;SDS011;13082;52.374;4.946;2022-08-19T08:30:14;23.15;;;13.13;;
25091;SDS011;13082;52.374;4.946;2022-08-19T08:32:44;28.70;;;14.27;;
25091;SDS011;13082;52.374;4.946;2022-08-19T08:35:12;26.95;;;14.02;;
25091;SDS011;13082;52.374;4.946;2022-08-19T08:37:39;20.17;;;11.07;;
25091;SDS011;13082;52.374;4.946;2022-08-19T08:40:05;19.35;;;11.63;;
25091;SDS011;13082;52.374;4.946;2022-08-19T08:42:44;18.13;;;9.98;;
25091;SDS011;13082;52.374;4.946;2022-08-19T08:45:18;17.20;;;10.75;;
25091;SDS011;13082;52.374;4.946;2022-08-19T08:47:46;12.88;;;10.18;;
25091;SDS011;13082;52.374;4.946;2022-08-19T08:53:17;15.35;;;9.45;;
25091;SDS011;13082;52.374;4.946;2022-08-19T08:55:44;17.60;;;10.52;;
25091;SDS011;13082;52.374;4.946;2022-08-19T08:58:12;16.63;;;9.05;;
25091;SDS011;13082;52.374;4.946;2022-08-19T09:00:43;11.93;;;9.02;;
25091;SDS011;13082;52.374;4.946;2022-08-19T09:03:18;12.85;;;9.18;;
25091;SDS011;13082;52.374;4.946;2022-08-19T09:08:54;14.80;;;9.50;;
25091;SDS011;13082;52.374;4.946;2022-08-19T09:11:57;10.45;;;7.78;;
25091;SDS011;13082;52.374;4.946;2022-08-19T09:14:35;11.25;;;6.60;;
25091;SDS011;13082;52.374;4.946;2022-08-19T09:17:25;9.10;;;5.78;;
25091;SDS011;13082;52.374;4.946;2022-08-19T09:22:59;11.10;;;5.90;;
25091;SDS011;13082;52.374;4.946;2022-08-19T09:25:25;11.20;;;7.10;;
25091;SDS011;13082;52.374;4.946;2022-08-19T09:27:52;8.82;;;6.18;;
25091;SDS011;13082;52.374;4.946;2022-08-19T09:30:20;7.72;;;6.53;;
25091;SDS011;13082;52.374;4.946;2022-08-19T09:32:50;10.25;;;5.65;;
25091;SDS011;13082;52.374;4.946;2022-08-19T09:35:23;9.48;;;5.38;;
25091;SDS011;13082;52.374;4.946;2022-08-19T09:37:51;7.03;;;5.53;;
25091;SDS011;13082;52.374;4.946;2022-08-19T09:40:17;9.60;;;5.28;;
25091;SDS011;13082;52.374;4.946;2022-08-19T09:42:44;9.70;;;6.07;;
25091;SDS011;13082;52.374;4.946;2022-08-19T09:45:12;10.55;;;5.80;;
25091;SDS011;13082;52.374;4.946;2022-08-19T09:47:38;11.95;;;5.15;;
25091;SDS011;13082;52.374;4.946;2022-08-19T09:50:05;8.00;;;5.80;;
25091;SDS011;13082;52.374;4.946;2022-08-19T09:52:32;10.52;;;5.35;;
25091;SDS011;13082;52.374;4.946;2022-08-19T09:55:01;6.90;;;4.95;;
25091;SDS011;13082;52.374;4.946;2022-08-19T09:57:31;7.22;;;5.68;;
25091;SDS011;13082;52.374;4.946;2022-08-19T09:59:57;12.20;;;6.05;;
25091;SDS011;13082;52.374;4.946;2022-08-19T10:02:23;7.32;;;6.07;;
25091;SDS011;13082;52.374;4.946;2022-08-19T10:04:49;9.63;;;5.78;;
25091;SDS011;13082;52.374;4.946;2022-08-19T10:07:34;11.40;;;5.78;;
25091;SDS011;13082;52.374;4.946;2022-08-19T10:10:00;8.35;;;5.90;;
25091;SDS011;13082;52.374;4.946;2022-08-19T10:12:26;6.10;;;4.35;;
25091;SDS011;13082;52.374;4.946;2022-08-19T10:14:51;6.32;;;4.78;;
25091;SDS011;13082;52.374;4.946;2022-08-19T10:17:19;9.02;;;6.15;;
25091;SDS011;13082;52.374;4.946;2022-08-19T10:19:45;11.18;;;5.13;;
25091;SDS011;13082;52.374;4.946;2022-08-19T10:22:12;6.82;;;5.00;;
25091;SDS011;13082;52.374;4.946;2022-08-19T10:24:38;6.65;;;5.13;;
25091;SDS011;13082;52.374;4.946;2022-08-19T10:27:04;8.45;;;5.63;;
25091;SDS011;13082;52.374;4.946;2022-08-19T10:29:30;7.43;;;5.20;;
25091;SDS011;13082;52.374;4.946;2022-08-19T10:31:56;9.95;;;5.22;;
25091;SDS011;13082;52.374;4.946;2022-08-19T10:34:25;14.13;;;5.80;;
25091;SDS011;13082;52.374;4.946;2022-08-19T10:36:52;10.15;;;6.05;;
25091;SDS011;13082;52.374;4.946;2022-08-19T10:39:17;9.02;;;4.93;;
25091;SDS011;13082;52.374;4.946;2022-08-19T10:41:43;10.02;;;5.38;;
25091;SDS011;13082;52.374;4.946;2022-08-19T10:44:10;8.65;;;5.47;;
25091;SDS011;13082;52.374;4.946;2022-08-19T10:46:38;13.60;;;5.72;;
25091;SDS011;13082;52.374;4.946;2022-08-19T10:49:07;10.50;;;5.00;;
25091;SDS011;13082;52.374;4.946;2022-08-19T10:51:34;6.35;;;4.72;;
25091;SDS011;13082;52.374;4.946;2022-08-19T10:54:19;5.65;;;4.13;;
25091;SDS011;13082;52.374;4.946;2022-08-19T10:56:45;7.05;;;4.20;;
25091;SDS011;13082;52.374;4.946;2022-08-19T10:59:21;10.15;;;5.20;;
25091;SDS011;13082;52.374;4.946;2022-08-19T11:01:49;9.52;;;4.60;;
25091;SDS011;13082;52.374;4.946;2022-08-19T11:04:15;6.00;;;4.13;;
25091;SDS011;13082;52.374;4.946;2022-08-19T11:06:45;7.07;;;4.35;;
25091;SDS011;13082;52.374;4.946;2022-08-19T11:09:12;6.97;;;4.18;;
25091;SDS011;13082;52.374;4.946;2022-08-19T11:11:44;7.35;;;4.55;;
25091;SDS011;13082;52.374;4.946;2022-08-19T11:14:11;5.65;;;4.28;;
25091;SDS011;13082;52.374;4.946;2022-08-19T11:16:39;7.70;;;3.30;;
25091;SDS011;13082;52.374;4.946;2022-08-19T11:19:06;6.13;;;4.55;;
25091;SDS011;13082;52.374;4.946;2022-08-19T11:21:34;6.47;;;3.00;;
25091;SDS011;13082;52.374;4.946;2022-08-19T11:24:03;5.35;;;3.13;;
25091;SDS011;13082;52.374;4.946;2022-08-19T11:26:32;7.15;;;3.63;;
25091;SDS011;13082;52.374;4.946;2022-08-19T11:28:59;5.43;;;3.60;;
25091;SDS011;13082;52.374;4.946;2022-08-19T11:31:29;5.13;;;2.92;;
25091;SDS011;13082;52.374;4.946;2022-08-19T11:34:02;7.82;;;3.72;;
25091;SDS011;13082;52.374;4.946;2022-08-19T11:36:29;5.75;;;3.83;;
25091;SDS011;13082;52.374;4.946;2022-08-19T11:38:57;4.90;;;3.50;;
25091;SDS011;13082;52.374;4.946;2022-08-19T11:41:23;5.22;;;3.08;;
25091;SDS011;13082;52.374;4.946;2022-08-19T11:43:50;7.18;;;3.53;;
25091;SDS011;13082;52.374;4.946;2022-08-19T11:46:17;3.80;;;3.20;;
25091;SDS011;13082;52.374;4.946;2022-08-19T11:48:43;5.57;;;3.13;;
25091;SDS011;13082;52.374;4.946;2022-08-19T11:51:10;3.50;;;2.70;;
25091;SDS011;13082;52.374;4.946;2022-08-19T11:53:37;4.10;;;2.88;;
25091;SDS011;13082;52.374;4.946;2022-08-19T11:56:04;3.97;;;2.80;;
25091;SDS011;13082;52.374;4.946;2022-08-19T11:58:31;5.68;;;3.05;;
25091;SDS011;13082;52.374;4.946;2022-08-19T12:00:57;5.97;;;3.42;;
25091;SDS011;13082;52.374;4.946;2022-08-19T12:03:23;9.38;;;3.03;;
25091;SDS011;13082;52.374;4.946;2022-08-19T12:05:49;5.40;;;2.50;;
25091;SDS011;13082;52.374;4.946;2022-08-19T12:08:15;3.42;;;2.95;;
25091;SDS011;13082;52.374;4.946;2022-08-19T12:10:42;4.82;;;2.70;;
25091;SDS011;13082;52.374;4.946;2022-08-19T12:13:08;3.08;;;2.78;;
25091;SDS011;13082;52.374;4.946;2022-08-19T12:15:37;4.05;;;2.63;;
25091;SDS011;13082;52.374;4.946;2022-08-19T12:18:06;3.65;;;2.58;;
25091;SDS011;13082;52.374;4.946;2022-08-19T12:20:35;3.50;;;2.15;;
25091;SDS011;13082;52.374;4.946;2022-08-19T12:23:03;4.80;;;2.35;;
25091;SDS011;13082;52.374;4.946;2022-08-19T12:25:30;3.45;;;1.63;;
25091;SDS011;13082;52.374;4.946;2022-08-19T12:27:56;2.83;;;1.77;;
25091;SDS011;13082;52.374;4.946;2022-08-19T12:30:22;6.57;;;2.03;;
25091;SDS011;13082;52.374;4.946;2022-08-19T12:32:48;2.17;;;1.98;;
25091;SDS011;13082;52.374;4.946;2022-08-19T12:35:15;3.45;;;1.80;;
25091;SDS011;13082;52.374;4.946;2022-08-19T12:37:42;3.20;;;2.00;;
25091;SDS011;13082;52.374;4.946;2022-08-19T12:40:10;2.65;;;1.83;;
25091;SDS011;13082;52.374;4.946;2022-08-19T12:42:39;2.15;;;1.60;;
25091;SDS011;13082;52.374;4.946;2022-08-19T12:45:09;2.53;;;1.50;;
25091;SDS011;13082;52.374;4.946;2022-08-19T12:47:35;2.38;;;1.38;;
25091;SDS011;13082;52.374;4.946;2022-08-19T12:50:01;1.95;;;1.60;;
25091;SDS011;13082;52.374;4.946;2022-08-19T12:52:27;1.10;;;1.00;;
25091;SDS011;13082;52.374;4.946;2022-08-19T12:54:53;2.47;;;1.48;;
25091;SDS011;13082;52.374;4.946;2022-08-19T12:57:24;1.38;;;1.10;;
25091;SDS011;13082;52.374;4.946;2022-08-19T12:59:52;2.97;;;1.50;;
25091;SDS011;13082;52.374;4.946;2022-08-19T13:02:21;1.20;;;1.10;;
25091;SDS011;13082;52.374;4.946;2022-08-19T13:04:47;1.58;;;1.10;;
25091;SDS011;13082;52.374;4.946;2022-08-19T13:07:13;2.90;;;1.38;;
25091;SDS011;13082;52.374;4.946;2022-08-19T13:09:38;1.23;;;1.13;;
25091;SDS011;13082;52.374;4.946;2022-08-19T13:12:07;1.20;;;1.00;;
25091;SDS011;13082;52.374;4.946;2022-08-19T13:14:37;1.30;;;1.02;;
25091;SDS011;13082;52.374;4.946;2022-08-19T13:17:05;1.27;;;1.00;;
25091;SDS011;13082;52.374;4.946;2022-08-19T13:19:30;1.33;;;1.23;;
25091;SDS011;13082;52.374;4.946;2022-08-19T13:21:56;1.48;;;1.33;;
25091;SDS011;13082;52.374;4.946;2022-08-19T13:24:22;2.28;;;1.33;;
25091;SDS011;13082;52.374;4.946;2022-08-19T13:26:48;2.35;;;1.20;;
25091;SDS011;13082;52.374;4.946;2022-08-19T13:29:14;2.63;;;1.20;;
25091;SDS011;13082;52.374;4.946;2022-08-19T13:31:57;1.23;;;0.90;;
25091;SDS011;13082;52.374;4.946;2022-08-19T13:34:41;1.90;;;1.08;;
25091;SDS011;13082;52.374;4.946;2022-08-19T13:37:07;4.43;;;1.10;;
25091;SDS011;13082;52.374;4.946;2022-08-19T13:39:33;3.35;;;0.80;;
25091;SDS011;13082;52.374;4.946;2022-08-19T13:41:59;1.10;;;0.98;;
25091;SDS011;13082;52.374;4.946;2022-08-19T13:44:26;1.27;;;1.02;;
25091;SDS011;13082;52.374;4.946;2022-08-19T13:46:54;1.42;;;1.20;;
25091;SDS011;13082;52.374;4.946;2022-08-19T13:49:24;2.10;;;1.50;;
25091;SDS011;13082;52.374;4.946;2022-08-19T13:51:50;0.90;;;0.90;;
25091;SDS011;13082;52.374;4.946;2022-08-19T13:54:16;3.72;;;0.93;;
25091;SDS011;13082;52.374;4.946;2022-08-19T13:56:42;2.33;;;1.10;;
25091;SDS011;13082;52.374;4.946;2022-08-19T13:59:09;2.75;;;1.20;;
25091;SDS011;13082;52.374;4.946;2022-08-19T14:01:35;4.60;;;1.35;;
25091;SDS011;13082;52.374;4.946;2022-08-19T14:04:02;4.47;;;1.48;;
25091;SDS011;13082;52.374;4.946;2022-08-19T14:06:28;2.38;;;1.40;;
25091;SDS011;13082;52.374;4.946;2022-08-19T14:08:54;2.75;;;1.20;;
25091;SDS011;13082;52.374;4.946;2022-08-19T14:11:19;2.88;;;1.40;;
25091;SDS011;13082;52.374;4.946;2022-08-19T14:13:45;2.88;;;1.35;;
25091;SDS011;13082;52.374;4.946;2022-08-19T14:16:12;1.92;;;1.10;;
25091;SDS011;13082;52.374;4.946;2022-08-19T14:18:39;1.55;;;1.42;;
25091;SDS011;13082;52.374;4.946;2022-08-19T14:21:05;1.13;;;0.90;;
25091;SDS011;13082;52.374;4.946;2022-08-19T14:23:31;2.35;;;2.15;;
25091;SDS011;13082;52.374;4.946;2022-08-19T14:26:08;1.25;;;1.20;;
25091;SDS011;13082;52.374;4.946;2022-08-19T14:28:36;3.70;;;1.35;;
25091;SDS011;13082;52.374;4.946;2022-08-19T14:31:02;1.42;;;0.93;;
25091;SDS011;13082;52.374;4.946;2022-08-19T14:33:28;1.30;;;1.20;;
25091;SDS011;13082;52.374;4.946;2022-08-19T14:35:53;3.15;;;1.30;;
25091;SDS011;13082;52.374;4.946;2022-08-19T14:38:19;3.28;;;1.50;;
25091;SDS011;13082;52.374;4.946;2022-08-19T14:40:45;1.27;;;0.93;;
25091;SDS011;13082;52.374;4.946;2022-08-19T14:43:11;2.35;;;1.40;;
25091;SDS011;13082;52.374;4.946;2022-08-19T14:45:37;2.80;;;1.10;;
25091;SDS011;13082;52.374;4.946;2022-08-19T14:48:05;1.55;;;1.10;;
25091;SDS011;13082;52.374;4.946;2022-08-19T14:50:32;3.08;;;1.23;;
25091;SDS011;13082;52.374;4.946;2022-08-19T14:53:02;1.80;;;1.17;;